Forside
METAR-TAF:

METAR-TAF

Lufthavne :

Bojnord, Iran

Breddekreds: 37-28N, længdekreds: 057-20E, højde: 1074 m

Aktuelle vejr

Denne rapport blev lavet for 1 time og 8 minutter siden, kl. 12:00 UTC
Vind 14 kt fra nordvest
Temperatur 22°C
Fugtighed 41%
Tryk 1020 hPa
Sigt: 3000 m
Nogle få skyer i en højde af 3000 ft, Cumulonimbus.
Spredte skyer i en højde af 4000 ft
Brudte skyer i en højde af 9000 ft
sand

METAR: OIMN 191200Z 31014KT 3000 SA FEW030CB SCT040 BKN090 22/08 Q1020

Tid: 17:38 (13:08 UTC)


TAF: fraværende

Vejrobservationer og prognoser fra mere end 4000 lufthavne (METAR og TAF).

De gule og røde prikker repræsenterer de meteorologiske stationer.

Flyt musen over at se navnet på stationen.

Så klik over at se vejr observationer og prognoser.

At skifte det kort: Klik på de grønne knapper med et sort kors for at zoome ind; på den grønne knap med en bindestreg for at zoome ud; eller på de grønne pile for tilstødende kort.


METAR-TAF: